Time;durP1;ratioP1;P1;durP2;ratioP2;P2;SDS_P1;SDS_P2;PMS_P1;PMS_P2;Temp;Humidity;BMP_temperature;BMP_pressure;BME280_temperature;BME280_humidity;BME280_pressure;Samples;Min_cycle;Max_cycle;Signal;HPM_P1;HPM_P2
2021/07/19 00:01:39;;;;;;;;;;;;;;;-148.22;100.00;58358.63;5013907;28;1243;-83
2021/07/19 00:04:15;;;;;;;;;;;;;;;-148.22;100.00;58358.63;5013955;28;1211;-83
2021/07/19 00:06:40;;;;;;;;;;;;;;;-148.22;100.00;58358.63;5013743;28;1288;-84
2021/07/19 00:09:25;;;;;;;;;;;;;;;-148.22;100.00;58358.63;4997470;28;1955;-84
2021/07/19 00:11:51;;;;;;;;;;;;;;;-148.22;100.00;58358.63;5013729;28;1312;-84
2021/07/19 00:14:19;;;;;;;;;;;;;;;-148.22;100.00;58358.63;5013858;28;1367;-84
2021/07/19 00:16:57;;;;;;;;;;;;;;;-148.22;100.00;58358.63;5013720;28;902;-84
2021/07/19 00:19:25;;;;;;;;;;;;;;;-148.22;100.00;58358.63;5013829;28;1300;-84
2021/07/19 00:22:14;;;;;;;;;;;;;;;-148.22;100.00;58358.63;5016846;28;1163;-84
2021/07/19 00:24:41;;;;;;;;;;;;;;;-148.22;100.00;58358.63;5018494;28;1180;-83
2021/07/19 00:27:36;;;;;;;;;;;;;;;-148.22;100.00;58358.63;5037320;28;1326;-83
2021/07/19 00:30:18;;;;;;;;;;;;;;;-148.22;100.00;58358.63;5020645;28;1215;-84
2021/07/19 00:32:46;;;;;;;;;;;;;;;-148.22;100.00;58358.63;5036080;28;1167;-84
2021/07/19 00:35:27;;;;;;;;;;;;;;;-148.22;100.00;58358.63;5072100;28;1176;-84
2021/07/19 00:37:58;;;;;;;;;;;;;;;-148.22;100.00;58358.63;5074552;28;1196;-84
2021/07/19 00:40:26;;;;;;;;;;;;;;;-148.22;100.00;58358.63;5074572;28;1463;-84
2021/07/19 00:43:00;;;;;;;;;;;;;;;-148.22;100.00;58358.63;5074513;28;1512;-84
2021/07/19 00:45:35;;;;;;;;;;;;;;;-148.22;100.00;58358.63;5074581;28;1288;-84
2021/07/19 00:48:02;;;;;;;;;;;;;;;-148.22;100.00;58358.63;5074471;28;1886;-84
2021/07/19 00:50:46;;;;;;;;;;;;;;;-148.22;100.00;58358.63;5074374;28;1278;-84
2021/07/19 00:53:11;;;;;;;;;;;;;;;-148.22;100.00;58358.63;5074219;28;1241;-84
2021/07/19 00:56:10;;;;;;;;;;;;;;;-148.22;100.00;58358.63;5058924;28;1043;-83
2021/07/19 00:59:01;;;;;;;;;;;;;;;-148.22;100.00;58358.63;5016817;28;1216;-84
2021/07/19 01:01:27;;;;;;;;;;;;;;;-148.22;100.00;58358.63;5016864;28;1186;-83
2021/07/19 01:04:12;;;;;;;;;;;;;;;-148.22;100.00;58358.63;5016823;28;1277;-84
2021/07/19 01:06:38;;;;;;;;;;;;;;;-148.22;100.00;58358.63;5000351;28;1341;-84
2021/07/19 01:09:33;;;;;;;;;;;;;;;-148.22;100.00;58358.63;5016703;28;1914;-84
2021/07/19 01:12:07;;;;;;;;;;;;;;;-148.22;100.00;58358.63;5016873;28;1188;-84
2021/07/19 01:14:33;;;;;;;;;;;;;;;-148.22;100.00;58358.63;5016653;28;1228;-84
2021/07/19 01:16:59;;;;;;;;;;;;;;;-148.22;100.00;58358.63;5016627;28;1156;-84
2021/07/19 01:19:35;;;;;;;;;;;;;;;-148.22;100.00;58358.63;5016582;28;811;-83
2021/07/19 01:25:54;;;;;;;;;;;;;;;-148.22;100.00;58358.63;4996825;28;978;-84
2021/07/19 01:28:48;;;;;;;;;;;;;;;-148.22;100.00;58358.63;4996622;28;1940;-84
2021/07/19 01:31:16;;;;;;;;;;;;;;;-148.22;100.00;58358.63;4996780;28;1231;-85
2021/07/19 01:33:44;;;;;;;;;;;;;;;-148.22;100.00;58358.63;5005778;28;1344;-85
2021/07/19 01:36:11;;;;;;;;;;;;;;;-148.22;100.00;58358.63;5019508;28;1177;-85
2021/07/19 01:38:52;;;;;;;;;;;;;;;-148.22;100.00;58358.63;5019487;28;1302;-84
2021/07/19 01:41:26;;;;;;;;;;;;;;;-148.22;100.00;58358.63;5024838;28;1130;-84
2021/07/19 01:43:55;;;;;;;;;;;;;;;-148.22;100.00;58358.63;4999788;28;1161;-85
2021/07/19 01:47:00;;;;;;;;;;;;;;;-148.22;100.00;58358.63;4999576;28;1156;-84
2021/07/19 01:49:49;;;;;;;;;;;;;;;-148.22;100.00;58358.63;5008880;28;1973;-84
2021/07/19 01:52:17;;;;;;;;;;;;;;;-148.22;100.00;58358.63;5019448;28;1291;-84
2021/07/19 01:54:58;;;;;;;;;;;;;;;-148.22;100.00;58358.63;5019147;28;1165;-84
2021/07/19 01:57:26;;;;;;;;;;;;;;;-148.22;100.00;58358.63;5019220;28;1173;-83
2021/07/19 02:00:10;;;;;;;;;;;;;;;-148.22;100.00;58358.63;5020504;28;1286;-83
2021/07/19 02:05:49;;;;;;;;;;;;;;;-148.22;100.00;58358.63;5025821;28;1195;-84
2021/07/19 02:08:33;;;;;;;;;;;;;;;-148.22;100.00;58358.63;5015960;28;1906;-84
2021/07/19 02:11:03;;;;;;;;;;;;;;;-148.22;100.00;58358.63;4999313;28;1296;-84
2021/07/19 02:13:32;;;;;;;;;;;;;;;-148.22;100.00;58358.63;5015734;28;1276;-83
2021/07/19 02:15:58;;;;;;;;;;;;;;;-148.22;100.00;58358.63;5015545;28;1220;-82
2021/07/19 02:18:43;;;;;;;;;;;;;;;-148.22;100.00;58358.63;5015324;28;1354;-83
2021/07/19 02:21:36;;;;;;;;;;;;;;;-148.22;100.00;58358.63;4997630;28;1328;-83
2021/07/19 02:24:02;;;;;;;;;;;;;;;-148.22;100.00;58358.63;4999149;28;1315;-84
2021/07/19 02:26:37;;;;;;;;;;;;;;;-148.22;100.00;58358.63;5015482;28;1388;-83
2021/07/19 02:29:03;;;;;;;;;;;;;;;-148.22;100.00;58358.63;5013108;28;1941;-83
2021/07/19 02:31:28;;;;;;;;;;;;;;;-148.22;100.00;58358.63;5015309;28;1250;-83
2021/07/19 02:34:04;;;;;;;;;;;;;;;-148.22;100.00;58358.63;5015523;28;875;-83
2021/07/19 02:36:46;;;;;;;;;;;;;;;-148.22;100.00;58358.63;5015343;28;937;-84
2021/07/19 02:39:13;;;;;;;;;;;;;;;-148.22;100.00;58358.63;5015061;28;1275;-84
2021/07/19 02:41:46;;;;;;;;;;;;;;;-148.22;100.00;58358.63;5015390;28;1265;-84
2021/07/19 02:44:18;;;;;;;;;;;;;;;-148.22;100.00;58358.63;5032399;28;1359;-84
2021/07/19 02:46:54;;;;;;;;;;;;;;;-148.22;100.00;58358.63;5016697;28;931;-84
2021/07/19 02:49:23;;;;;;;;;;;;;;;-148.22;100.00;58358.63;5015880;28;1951;-83
2021/07/19 02:51:58;;;;;;;;;;;;;;;-148.22;100.00;58358.63;5031435;28;1227;-83
2021/07/19 02:54:34;;;;;;;;;;;;;;;-148.22;100.00;58358.63;5012481;28;1342;-84
2021/07/19 02:57:00;;;;;;;;;;;;;;;-148.22;100.00;58358.63;5014504;28;1052;-84
2021/07/19 02:59:26;;;;;;;;;;;;;;;-148.22;100.00;58358.63;5015710;28;1145;-84
2021/07/19 03:01:55;;;;;;;;;;;;;;;-148.22;100.00;58358.63;5016937;28;830;-84
2021/07/19 03:04:23;;;;;;;;;;;;;;;-148.22;100.00;58358.63;5015390;28;1319;-84
2021/07/19 03:06:49;;;;;;;;;;;;;;;-148.22;100.00;58358.63;5051219;28;1249;-84
2021/07/19 03:09:17;;;;;;;;;;;;;;;-148.22;100.00;58358.63;5055104;28;1899;-84
2021/07/19 03:11:49;;;;;;;;;;;;;;;-148.22;100.00;58358.63;5056344;28;854;-84
2021/07/19 03:14:22;;;;;;;;;;;;;;;-148.22;100.00;58358.63;5055209;28;1381;-85
2021/07/19 03:16:49;;;;;;;;;;;;;;;-148.22;100.00;58358.63;5055071;28;1435;-83
2021/07/19 03:19:28;;;;;;;;;;;;;;;-148.22;100.00;58358.63;5055055;28;1159;-84
2021/07/19 03:21:56;;;;;;;;;;;;;;;-148.22;100.00;58358.63;5054802;28;1155;-84
2021/07/19 03:24:22;;;;;;;;;;;;;;;-148.22;100.00;58358.63;5056002;28;910;-84
2021/07/19 03:26:48;;;;;;;;;;;;;;;-148.22;100.00;58358.63;5056080;28;997;-84
2021/07/19 03:29:38;;;;;;;;;;;;;;;-148.22;100.00;58358.63;5054823;28;1890;-84
2021/07/19 03:32:04;;;;;;;;;;;;;;;-148.22;100.00;58358.63;5055712;28;1371;-84
2021/07/19 03:34:35;;;;;;;;;;;;;;;-148.22;100.00;58358.63;5050110;28;1314;-83
2021/07/19 03:37:02;;;;;;;;;;;;;;;-148.22;100.00;58358.63;5045607;28;1064;-83
2021/07/19 03:39:37;;;;;;;;;;;;;;;-148.22;100.00;58358.63;5070162;28;1183;-84
2021/07/19 03:42:03;;;;;;;;;;;;;;;-148.22;100.00;58358.63;5070163;28;1120;-83
2021/07/19 03:44:35;;;;;;;;;;;;;;;-148.22;100.00;58358.63;5071310;28;1157;-83
2021/07/19 03:47:01;;;;;;;;;;;;;;;-148.22;100.00;58358.63;5071314;28;1195;-83
2021/07/19 03:49:30;;;;;;;;;;;;;;;-148.22;100.00;58358.63;5055526;28;1890;-83
2021/07/19 03:52:05;;;;;;;;;;;;;;;-148.22;100.00;58358.63;5055748;28;1051;-84
2021/07/19 03:54:39;;;;;;;;;;;;;;;-148.22;100.00;58358.63;5071207;28;1199;-82
2021/07/19 03:57:08;;;;;;;;;;;;;;;-148.22;100.00;58358.63;5070449;28;1342;-84
2021/07/19 03:59:34;;;;;;;;;;;;;;;-148.22;100.00;58358.63;5072055;28;1366;-84
2021/07/19 04:02:10;;;;;;;;;;;;;;;-148.22;100.00;58358.63;5075137;28;1276;-80
2021/07/19 04:04:52;;;;;;;;;;;;;;;-148.22;100.00;58358.63;5075075;28;1211;-80
2021/07/19 04:07:18;;;;;;;;;;;;;;;-148.22;100.00;58358.63;5059439;28;1914;-80
2021/07/19 04:09:50;;;;;;;;;;;;;;;-148.22;100.00;58358.63;5074784;28;1273;-80
2021/07/19 04:12:44;;;;;;;;;;;;;;;-148.22;100.00;58358.63;5074970;28;1170;-80
2021/07/19 04:15:11;;;;;;;;;;;;;;;-148.22;100.00;58358.63;4981723;28;1181;-80
2021/07/19 04:17:37;;;;;;;;;;;;;;;-148.22;100.00;58358.63;4997934;28;1255;-80
2021/07/19 04:20:08;;;;;;;;;;;;;;;-148.22;100.00;58358.63;4998058;28;1060;-80
2021/07/19 04:22:47;;;;;;;;;;;;;;;-148.22;100.00;58358.63;4997858;28;1192;-81
2021/07/19 04:25:13;;;;;;;;;;;;;;;-148.22;100.00;58358.63;4998025;28;1353;-80
2021/07/19 04:27:42;;;;;;;;;;;;;;;-148.22;100.00;58358.63;4997880;28;1975;-80
2021/07/19 04:30:07;;;;;;;;;;;;;;;-148.22;100.00;58358.63;4997743;28;1280;-80
2021/07/19 04:32:51;;;;;;;;;;;;;;;-148.22;100.00;58358.63;4997471;28;1154;-80
2021/07/19 04:35:20;;;;;;;;;;;;;;;-148.22;100.00;58358.63;4997636;28;1348;-81
2021/07/19 04:38:00;;;;;;;;;;;;;;;-148.22;100.00;58358.63;4997518;28;1224;-80
2021/07/19 04:40:27;;;;;;;;;;;;;;;-148.22;100.00;58358.63;4997447;28;1213;-81
2021/07/19 04:42:55;;;;;;;;;;;;;;;-148.22;100.00;58358.63;4997660;28;941;-80
2021/07/19 04:45:21;;;;;;;;;;;;;;;-148.22;100.00;58358.63;4997110;28;1201;-80
2021/07/19 04:47:48;;;;;;;;;;;;;;;-148.22;100.00;58358.63;4997196;28;1894;-81
2021/07/19 04:50:21;;;;;;;;;;;;;;;-148.22;100.00;58358.63;4997458;28;1328;-80
2021/07/19 04:52:56;;;;;;;;;;;;;;;-148.22;100.00;58358.63;5058826;28;984;-81
2021/07/19 04:55:23;;;;;;;;;;;;;;;-148.22;100.00;58358.63;5057306;28;1147;-80
2021/07/19 04:57:51;;;;;;;;;;;;;;;-148.22;100.00;58358.63;5058064;28;874;-80
2021/07/19 05:00:39;;;;;;;;;;;;;;;-148.22;100.00;58358.63;5072932;28;1340;-80
2021/07/19 05:03:24;;;;;;;;;;;;;;;-148.22;100.00;58358.63;5074025;28;1183;-80
2021/07/19 05:05:52;;;;;;;;;;;;;;;-148.22;100.00;58358.63;5046239;28;1217;-80
2021/07/19 05:08:19;;;;;;;;;;;;;;;-148.22;100.00;58358.63;5053360;28;1991;-80
2021/07/19 05:10:55;;;;;;;;;;;;;;;-148.22;100.00;58358.63;5053438;28;1199;-80
2021/07/19 05:13:56;;;;;;;;;;;;;;;-148.22;100.00;58358.63;5037013;28;1151;-80
2021/07/19 05:16:36;;;;;;;;;;;;;;;-148.22;100.00;58358.63;4980531;28;1145;-80
2021/07/19 05:19:03;;;;;;;;;;;;;;;-148.22;100.00;58358.63;4995368;28;1212;-80
2021/07/19 05:21:32;;;;;;;;;;;;;;;-148.22;100.00;58358.63;4996820;28;1157;-80
2021/07/19 05:23:59;;;;;;;;;;;;;;;-148.22;100.00;58358.63;4995816;28;1140;-80
2021/07/19 05:26:52;;;;;;;;;;;;;;;-148.22;100.00;58358.63;4996736;28;1185;-80
2021/07/19 05:29:17;;;;;;;;;;;;;;;-148.22;100.00;58358.63;4996540;28;1971;-80
2021/07/19 05:31:44;;;;;;;;;;;;;;;-148.22;100.00;58358.63;4996521;28;1170;-79
2021/07/19 05:34:11;;;;;;;;;;;;;;;-148.22;100.00;58358.63;4996517;28;1241;-80
2021/07/19 05:36:47;;;;;;;;;;;;;;;-148.22;100.00;58358.63;4996547;28;1075;-80
2021/07/19 05:39:13;;;;;;;;;;;;;;;-148.22;100.00;58358.63;4996455;28;1174;-80
2021/07/19 05:41:39;;;;;;;;;;;;;;;-148.22;100.00;58358.63;4980100;28;1285;-80
2021/07/19 05:44:05;;;;;;;;;;;;;;;-148.22;100.00;58358.63;4996418;28;1317;-80
2021/07/19 05:46:40;;;;;;;;;;;;;;;-148.22;100.00;58358.63;4996266;28;1185;-80
2021/07/19 05:49:06;;;;;;;;;;;;;;;-148.22;100.00;58358.63;4996160;28;1891;-81
2021/07/19 05:51:33;;;;;;;;;;;;;;;-148.22;100.00;58358.63;5036263;28;1297;-81
2021/07/19 05:54:00;;;;;;;;;;;;;;;-148.22;100.00;58358.63;5053005;28;1313;-80
2021/07/19 05:56:36;;;;;;;;;;;;;;;-148.22;100.00;58358.63;5037709;28;833;-80
2021/07/19 05:59:07;;;;;;;;;;;;;;;-148.22;100.00;58358.63;5052982;28;1331;-80
2021/07/19 06:01:38;;;;;;;;;;;;;;;-148.22;100.00;58358.63;5052830;28;1280;-81
2021/07/19 06:04:33;;;;;;;;;;;;;;;-148.22;100.00;58358.63;5049818;28;1363;-80
2021/07/19 06:06:59;;;;;;;;;;;;;;;-148.22;100.00;58358.63;5044193;28;1147;-80
2021/07/19 06:09:33;;;;;;;;;;;;;;;-148.22;100.00;58358.63;5056405;28;1914;-80
2021/07/19 06:12:06;;;;;;;;;;;;;;;-148.22;100.00;58358.63;5071518;28;1156;-80
2021/07/19 06:14:42;;;;;;;;;;;;;;;-148.22;100.00;58358.63;5055871;28;1319;-80
2021/07/19 06:17:20;;;;;;;;;;;;;;;-148.22;100.00;58358.63;5071197;28;1215;-79
2021/07/19 06:19:46;;;;;;;;;;;;;;;-148.22;100.00;58358.63;5055753;28;980;-80
2021/07/19 06:22:12;;;;;;;;;;;;;;;-148.22;100.00;58358.63;5054942;28;1331;-80
2021/07/19 06:25:04;;;;;;;;;;;;;;;-148.22;100.00;58358.63;5057116;28;1039;-80
2021/07/19 06:27:47;;;;;;;;;;;;;;;-148.22;100.00;58358.63;4995505;28;1886;-80
2021/07/19 06:30:15;;;;;;;;;;;;;;;-148.22;100.00;58358.63;4995304;28;1288;-80
2021/07/19 06:32:42;;;;;;;;;;;;;;;-148.22;100.00;58358.63;4995444;28;1348;-82
2021/07/19 06:35:07;;;;;;;;;;;;;;;-148.22;100.00;58358.63;4995365;28;1316;-83
2021/07/19 06:37:48;;;;;;;;;;;;;;;-148.22;100.00;58358.63;4995196;28;1312;-82
2021/07/19 06:40:22;;;;;;;;;;;;;;;-148.22;100.00;58358.63;4995426;28;859;-82
2021/07/19 06:42:48;;;;;;;;;;;;;;;-148.22;100.00;58358.63;4978906;28;1274;-80
2021/07/19 06:45:15;;;;;;;;;;;;;;;-148.22;100.00;58358.63;4979080;28;1245;-80
2021/07/19 06:47:41;;;;;;;;;;;;;;;-148.22;100.00;58358.63;4978937;28;1898;-80
2021/07/19 06:50:15;;;;;;;;;;;;;;;-148.22;100.00;58358.63;4979210;28;1423;-81
2021/07/19 06:53:10;;;;;;;;;;;;;;;-148.22;100.00;58358.63;4959732;28;1450;-81
2021/07/19 06:55:52;;;;;;;;;;;;;;;-148.22;100.00;58358.63;4918102;29;1347;-82
2021/07/19 06:58:26;;;;;;;;;;;;;;;-148.22;100.00;58358.63;4933505;29;1452;-81
2021/07/19 07:00:53;;;;;;;;;;;;;;;-148.22;100.00;58358.63;4937388;29;1526;-81
2021/07/19 07:03:19;;;;;;;;;;;;;;;-148.22;100.00;58358.63;4942956;28;1422;-82
2021/07/19 07:05:46;;;;;;;;;;;;;;;-148.22;100.00;58358.63;4978492;28;1523;-82
2021/07/19 07:08:12;;;;;;;;;;;;;;;-148.22;100.00;58358.63;4978267;28;1915;-85
2021/07/19 07:10:52;;;;;;;;;;;;;;;-148.22;100.00;58358.63;4967937;28;1515;-87
2021/07/19 07:13:18;;;;;;;;;;;;;;;-148.22;100.00;58358.63;4983145;28;1316;-86
2021/07/19 07:19:29;;;;;;;;;;;;;;;-148.22;100.00;58358.63;4941195;29;1326;-86
2021/07/19 07:25:16;;;;;;;;;;;;;;;-148.22;100.00;58358.63;4950012;28;1187;-86
2021/07/19 07:28:00;;;;;;;;;;;;;;;-148.22;100.00;58358.63;4924828;29;1911;-86
2021/07/19 07:31:01;;;;;;;;;;;;;;;-148.22;100.00;58358.63;4939984;29;1213;-83
2021/07/19 07:33:26;;;;;;;;;;;;;;;-148.22;100.00;58358.63;4986398;28;1217;-83
2021/07/19 07:35:52;;;;;;;;;;;;;;;-148.22;100.00;58358.63;4967073;28;1234;-82
2021/07/19 07:38:28;;;;;;;;;;;;;;;-148.22;100.00;58358.63;4987796;28;1531;-84
2021/07/19 07:41:05;;;;;;;;;;;;;;;-148.22;100.00;58358.63;4994398;28;980;-83
2021/07/19 07:43:41;;;;;;;;;;;;;;;-148.22;100.00;58358.63;4975061;28;1427;-83
2021/07/19 07:46:06;;;;;;;;;;;;;;;-148.22;100.00;58358.63;4992643;28;1336;-84
2021/07/19 07:48:57;;;;;;;;;;;;;;;-148.22;100.00;58358.63;4993415;28;1898;-87
2021/07/19 07:51:31;;;;;;;;;;;;;;;-148.22;100.00;58358.63;4994276;28;1256;-88
2021/07/19 07:53:58;;;;;;;;;;;;;;;-148.22;100.00;58358.63;5046522;28;1358;-88
2021/07/19 07:56:33;;;;;;;;;;;;;;;-148.22;100.00;58358.63;5091739;28;1352;-90
2021/07/19 08:02:36;;;;;;;;;;;;;;;-148.22;100.00;58358.63;5076184;28;1224;-91
2021/07/19 08:05:12;;;;;;;;;;;;;;;-148.22;100.00;58358.63;5076353;28;838;-86
2021/07/19 08:07:38;;;;;;;;;;;;;;;-148.22;100.00;58358.63;5086535;28;1969;-87
2021/07/19 08:10:05;;;;;;;;;;;;;;;-148.22;100.00;58358.63;5054219;28;1269;-89
2021/07/19 08:12:59;;;;;;;;;;;;;;;-148.22;100.00;58358.63;5049419;28;1361;-89
2021/07/19 08:15:25;;;;;;;;;;;;;;;-148.22;100.00;58358.63;5034299;28;1210;-88
2021/07/19 08:20:54;;;;;;;;;;;;;;;-148.22;100.00;58358.63;5055572;28;585;-86
2021/07/19 08:23:29;;;;;;;;;;;;;;;-148.22;100.00;58358.63;5070689;28;1439;-85
2021/07/19 08:26:24;;;;;;;;;;;;;;;-148.22;100.00;58358.63;5049261;28;1333;-87
2021/07/19 08:28:58;;;;;;;;;;;;;;;-148.22;100.00;58358.63;4993583;28;1918;-87
2021/07/19 08:31:45;;;;;;;;;;;;;;;-148.22;100.00;58358.63;4993964;28;1368;-86
2021/07/19 08:37:13;;;;;;;;;;;;;;;-148.22;100.00;58358.63;4974822;28;590;-90
2021/07/19 08:39:41;;;;;;;;;;;;;;;-148.22;100.00;58358.63;4978735;28;1308;-90
2021/07/19 08:48:14;;;;;;;;;;;;;;;-148.22;100.00;58358.63;4997836;28;1894;-86
2021/07/19 08:50:50;;;;;;;;;;;;;;;-148.22;100.00;58358.63;4974794;28;1326;-90
2021/07/19 08:53:18;;;;;;;;;;;;;;;-148.22;100.00;58358.63;4971134;28;1423;-86
2021/07/19 08:55:49;;;;;;;;;;;;;;;-148.22;100.00;58358.63;4980975;28;1260;-86
2021/07/19 08:58:22;;;;;;;;;;;;;;;-148.22;100.00;58358.63;4980126;28;1564;-85
2021/07/19 09:00:48;;;;;;;;;;;;;;;-148.22;100.00;58358.63;4993879;28;1364;-85
2021/07/19 09:03:14;;;;;;;;;;;;;;;-148.22;100.00;58358.63;4977907;28;1036;-84
2021/07/19 09:06:05;;;;;;;;;;;;;;;-148.22;100.00;58358.63;5012405;28;1276;-84
2021/07/19 09:08:30;;;;;;;;;;;;;;;-148.22;100.00;58358.63;5053555;28;1981;-85
2021/07/19 09:11:05;;;;;;;;;;;;;;;-148.22;100.00;58358.63;5056754;28;1300;-85
2021/07/19 09:13:31;;;;;;;;;;;;;;;-148.22;100.00;58358.63;5053623;28;1354;-85
2021/07/19 09:16:08;;;;;;;;;;;;;;;-148.22;100.00;58358.63;5073812;28;1167;-82
2021/07/19 09:19:02;;;;;;;;;;;;;;;-148.22;100.00;58358.63;5058454;28;850;-86
2021/07/19 09:21:36;;;;;;;;;;;;;;;-148.22;100.00;58358.63;5057101;28;1650;-82
2021/07/19 09:27:15;;;;;;;;;;;;;;;-148.22;100.00;58358.63;5058169;28;981;-85
2021/07/19 09:29:58;;;;;;;;;;;;;;;-148.22;100.00;58358.63;5057474;28;1910;-83
2021/07/19 09:35:23;;;;;;;;;;;;;;;-148.22;100.00;58358.63;5057143;28;1199;-89
2021/07/19 09:38:08;;;;;;;;;;;;;;;-148.22;100.00;58358.63;5056781;28;1319;-88
2021/07/19 09:41:08;;;;;;;;;;;;;;;-148.22;100.00;58358.63;5056803;28;1191;-88
2021/07/19 09:43:50;;;;;;;;;;;;;;;-148.22;100.00;58358.63;4970696;28;1712;-88
2021/07/19 09:46:30;;;;;;;;;;;;;;;-148.22;100.00;58358.63;4977040;28;1362;-88
2021/07/19 09:49:22;;;;;;;;;;;;;;;-148.22;100.00;58358.63;4977208;28;1985;-87
2021/07/19 09:51:56;;;;;;;;;;;;;;;-148.22;100.00;58358.63;4981672;28;1422;-89
2021/07/19 09:54:31;;;;;;;;;;;;;;;-148.22;100.00;58358.63;4970696;28;1437;-91
2021/07/19 09:57:05;;;;;;;;;;;;;;;-148.22;100.00;58358.63;4959854;28;1480;-94
2021/07/19 09:59:59;;;;;;;;;;;;;;;-148.22;100.00;58358.63;4960676;28;1192;-90
2021/07/19 10:02:33;;;;;;;;;;;;;;;-148.22;100.00;58358.63;4977130;28;1468;-88
2021/07/19 10:05:01;;;;;;;;;;;;;;;-148.22;100.00;58358.63;4971915;28;1496;-87
2021/07/19 10:07:26;;;;;;;;;;;;;;;-148.22;100.00;58358.63;4966860;28;1396;-88
2021/07/19 10:09:56;;;;;;;;;;;;;;;-148.22;100.00;58358.63;4967976;28;1923;-88
2021/07/19 10:12:55;;;;;;;;;;;;;;;-148.22;100.00;58358.63;4995051;28;1277;-88
2021/07/19 10:15:37;;;;;;;;;;;;;;;-148.22;100.00;58358.63;4919042;29;1268;-88
2021/07/19 10:18:13;;;;;;;;;;;;;;;-148.22;100.00;58358.63;4922890;28;1233;-88
2021/07/19 10:20:40;;;;;;;;;;;;;;;-148.22;100.00;58358.63;4995956;28;1184;-88
2021/07/19 10:26:41;;;;;;;;;;;;;;;-148.22;100.00;58358.63;4956855;29;1938;-88
2021/07/19 10:32:33;;;;;;;;;;;;;;;-148.22;100.00;58358.63;4956879;29;948;-87
2021/07/19 10:35:09;;;;;;;;;;;;;;;-148.22;100.00;58358.63;4956987;29;1186;-87
2021/07/19 10:38:12;;;;;;;;;;;;;;;-148.22;100.00;58358.63;4956945;28;1321;-87
2021/07/19 10:40:38;;;;;;;;;;;;;;;-148.22;100.00;58358.63;4956751;29;886;-87
2021/07/19 10:43:15;;;;;;;;;;;;;;;-148.22;100.00;58358.63;4940931;29;1237;-88
2021/07/19 10:48:44;;;;;;;;;;;;;;;-148.22;100.00;58358.63;4956932;29;1959;-86
2021/07/19 10:51:30;;;;;;;;;;;;;;;-148.22;100.00;58358.63;4974763;28;1191;-88
2021/07/19 10:54:24;;;;;;;;;;;;;;;-148.22;100.00;58358.63;5014904;28;1182;-87
2021/07/19 10:56:54;;;;;;;;;;;;;;;-148.22;100.00;58358.63;5014955;28;1173;-87
2021/07/19 10:59:46;;;;;;;;;;;;;;;-148.22;100.00;58358.63;5014586;28;858;-87
2021/07/19 11:05:15;;;;;;;;;;;;;;;-148.22;100.00;58358.63;5056473;28;669;-86
2021/07/19 11:07:43;;;;;;;;;;;;;;;-148.22;100.00;58358.63;5072353;28;1902;-86
2021/07/19 11:13:30;;;;;;;;;;;;;;;-148.22;100.00;58358.63;5074337;28;1030;-88
2021/07/19 11:16:27;;;;;;;;;;;;;;;-148.22;100.00;58358.63;5057619;28;1433;-88
2021/07/19 11:18:54;;;;;;;;;;;;;;;-148.22;100.00;58358.63;5054082;28;1270;-88
2021/07/19 11:21:39;;;;;;;;;;;;;;;-148.22;100.00;58358.63;5054224;28;1348;-88
2021/07/19 11:24:17;;;;;;;;;;;;;;;-148.22;100.00;58358.63;5037431;28;1236;-88
2021/07/19 11:26:58;;;;;;;;;;;;;;;-148.22;100.00;58358.63;5054292;28;1195;-89
2021/07/19 11:29:42;;;;;;;;;;;;;;;-148.22;100.00;58358.63;5056668;28;1902;-89
2021/07/19 11:35:22;;;;;;;;;;;;;;;-148.22;100.00;58358.63;5053908;28;873;-89
2021/07/19 11:41:19;;;;;;;;;;;;;;;-148.22;100.00;58358.63;5053609;28;1430;-89
2021/07/19 11:43:46;;;;;;;;;;;;;;;-148.22;100.00;58358.63;5035882;28;1498;-92
2021/07/19 11:46:28;;;;;;;;;;;;;;;-148.22;100.00;58358.63;5038044;28;1390;-93
2021/07/19 11:49:10;;;;;;;;;;;;;;;-148.22;100.00;58358.63;5032263;28;1890;-91
2021/07/19 11:51:51;;;;;;;;;;;;;;;-148.22;100.00;58358.63;5028133;28;1403;-90
2021/07/19 11:54:47;;;;;;;;;;;;;;;-148.22;100.00;58358.63;5035767;28;1605;-90
2021/07/19 12:03:37;;;;;;;;;;;;;;;-148.22;100.00;58358.63;5035674;28;1651;-90
2021/07/19 12:06:30;;;;;;;;;;;;;;;-148.22;100.00;58358.63;5036843;28;1282;-87
2021/07/19 12:08:56;;;;;;;;;;;;;;;-148.22;100.00;58358.63;4997386;28;2018;-88
2021/07/19 12:14:24;;;;;;;;;;;;;;;-148.22;100.00;58358.63;5006003;28;1431;-91
2021/07/19 12:16:58;;;;;;;;;;;;;;;-148.22;100.00;58358.63;4987861;28;1384;-90
2021/07/19 12:19:24;;;;;;;;;;;;;;;-148.22;100.00;58358.63;4959049;28;1246;-90
2021/07/19 12:22:05;;;;;;;;;;;;;;;-148.22;100.00;58358.63;4962304;28;1216;-90
2021/07/19 12:25:03;;;;;;;;;;;;;;;-148.22;100.00;58358.63;4962460;28;1176;-90
2021/07/19 12:27:49;;;;;;;;;;;;;;;-148.22;100.00;58358.63;4959592;28;1464;-88
2021/07/19 12:30:15;;;;;;;;;;;;;;;-148.22;100.00;58358.63;4959497;29;1568;-85
2021/07/19 12:32:52;;;;;;;;;;;;;;;-148.22;100.00;58358.63;4957211;29;1818;-87
2021/07/19 12:35:23;;;;;;;;;;;;;;;-148.22;100.00;58358.63;4953902;28;1585;-85
2021/07/19 12:38:01;;;;;;;;;;;;;;;-148.22;100.00;58358.63;4954703;28;1293;-87
2021/07/19 12:40:27;;;;;;;;;;;;;;;-148.22;100.00;58358.63;4943052;29;1177;-87
2021/07/19 12:46:14;;;;;;;;;;;;;;;-148.22;100.00;58358.63;4982957;28;959;-92
2021/07/19 12:49:00;;;;;;;;;;;;;;;-148.22;100.00;58358.63;4999049;28;1886;-93
2021/07/19 12:51:35;;;;;;;;;;;;;;;-148.22;100.00;58358.63;4999379;28;1175;-93
2021/07/19 12:54:25;;;;;;;;;;;;;;;-148.22;100.00;58358.63;5016733;28;1290;-93
2021/07/19 12:57:00;;;;;;;;;;;;;;;-148.22;100.00;58358.63;5007967;28;1362;-91
2021/07/19 12:59:47;;;;;;;;;;;;;;;-148.22;100.00;58358.63;4998957;28;1196;-91
2021/07/19 13:02:49;;;;;;;;;;;;;;;-148.22;100.00;58358.63;4998562;28;1326;-92
2021/07/19 13:05:22;;;;;;;;;;;;;;;-148.22;100.00;58358.63;4998718;28;1190;-91
2021/07/19 13:07:48;;;;;;;;;;;;;;;-148.22;100.00;58358.63;5024648;28;1902;-90
2021/07/19 13:10:32;;;;;;;;;;;;;;;-148.22;100.00;58358.63;5037562;28;1208;-91
2021/07/19 13:13:06;;;;;;;;;;;;;;;-148.22;100.00;58358.63;5037611;28;1196;-89
2021/07/19 13:15:57;;;;;;;;;;;;;;;-148.22;100.00;58358.63;5069411;28;1407;-90
2021/07/19 13:18:38;;;;;;;;;;;;;;;-148.22;100.00;58358.63;5037817;28;1236;-89
2021/07/19 13:21:39;;;;;;;;;;;;;;;-148.22;100.00;58358.63;5056492;28;1652;-90
2021/07/19 13:24:17;;;;;;;;;;;;;;;-148.22;100.00;58358.63;4978059;28;1483;-89
2021/07/19 13:27:05;;;;;;;;;;;;;;;-148.22;100.00;58358.63;4977503;28;1233;-90
2021/07/19 13:29:32;;;;;;;;;;;;;;;-148.22;100.00;58358.63;4991889;28;1904;-86
2021/07/19 13:32:08;;;;;;;;;;;;;;;-148.22;100.00;58358.63;4971282;28;1484;-87
2021/07/19 13:35:01;;;;;;;;;;;;;;;-148.22;100.00;58358.63;4971820;28;1556;-87
2021/07/19 13:37:29;;;;;;;;;;;;;;;-148.22;100.00;58358.63;4977119;28;1340;-85
2021/07/19 13:39:59;;;;;;;;;;;;;;;-148.22;100.00;58358.63;4977787;28;1541;-86
2021/07/19 13:42:45;;;;;;;;;;;;;;;-148.22;100.00;58358.63;4974902;28;1685;-86
2021/07/19 13:45:14;;;;;;;;;;;;;;;-148.22;100.00;58358.63;4969347;28;1502;-87
2021/07/19 13:47:57;;;;;;;;;;;;;;;-148.22;100.00;58358.63;4967171;28;1251;-86
2021/07/19 13:50:49;;;;;;;;;;;;;;;-148.22;100.00;58358.63;4978132;28;1382;-90
2021/07/19 13:53:16;;;;;;;;;;;;;;;-148.22;100.00;58358.63;4995077;28;1454;-85
2021/07/19 13:55:51;;;;;;;;;;;;;;;-148.22;100.00;58358.63;4993108;28;1576;-86
2021/07/19 13:58:22;;;;;;;;;;;;;;;-148.22;100.00;58358.63;5012719;28;1600;-86
2021/07/19 14:00:56;;;;;;;;;;;;;;;-148.22;100.00;58358.63;5056312;28;1340;-93
2021/07/19 14:04:01;;;;;;;;;;;;;;;-148.22;100.00;58358.63;5056464;28;1270;-93
2021/07/19 14:06:34;;;;;;;;;;;;;;;-148.22;100.00;58358.63;5055614;28;1566;-91
2021/07/19 14:08:59;;;;;;;;;;;;;;;-148.22;100.00;58358.63;5041469;28;1911;-91
2021/07/19 14:11:26;;;;;;;;;;;;;;;-148.22;100.00;58358.63;5052260;28;1333;-92
2021/07/19 14:14:04;;;;;;;;;;;;;;;-148.22;100.00;58358.63;5047190;28;1279;-93
2021/07/19 14:16:52;;;;;;;;;;;;;;;-148.22;100.00;58358.63;5052969;28;1251;-93
2021/07/19 14:19:23;;;;;;;;;;;;;;;-148.22;100.00;58358.63;5052654;28;1206;-89